createdAt,value
2022-10-13T00:00:31.448Z,9.40
2022-10-13T00:03:18.920Z,9.77
2022-10-13T00:06:07.676Z,9.33
2022-10-13T00:08:55.799Z,9.63
2022-10-13T00:11:42.639Z,9.33
2022-10-13T00:14:30.133Z,8.93
2022-10-13T00:17:16.952Z,10.03
2022-10-13T00:20:04.971Z,9.67
2022-10-13T00:22:51.876Z,9.87
2022-10-13T00:25:41.812Z,10.37
2022-10-13T00:28:28.767Z,10.03
2022-10-13T00:31:18.958Z,9.60
2022-10-13T00:34:05.777Z,10.07
2022-10-13T00:36:52.608Z,9.67
2022-10-13T00:39:39.577Z,10.07
2022-10-13T00:42:26.412Z,9.87
2022-10-13T00:45:22.465Z,9.77
2022-10-13T00:48:09.973Z,9.50
2022-10-13T00:50:58.110Z,9.90
2022-10-13T00:53:47.106Z,9.93
2022-10-13T00:56:37.277Z,9.83
2022-10-13T00:59:28.282Z,10.77
2022-10-13T01:02:15.767Z,10.57
2022-10-13T01:05:04.642Z,11.17
2022-10-13T01:07:52.898Z,10.73
2022-10-13T01:10:52.140Z,11.53
2022-10-13T01:13:43.209Z,10.20
2022-10-13T01:16:38.974Z,10.80
2022-10-13T01:19:41.463Z,11.10
2022-10-13T01:22:44.706Z,10.17
2022-10-13T01:25:49.826Z,10.93
2022-10-13T01:29:04.827Z,10.63
2022-10-13T01:31:59.835Z,11.60
2022-10-13T01:34:53.133Z,11.53
2022-10-13T01:37:45.266Z,11.33
2022-10-13T01:40:40.038Z,11.80
2022-10-13T01:43:30.470Z,11.17
2022-10-13T01:46:21.515Z,10.43
2022-10-13T01:49:11.431Z,10.67
2022-10-13T01:52:02.419Z,10.60
2022-10-13T01:54:51.263Z,11.03
2022-10-13T01:57:40.903Z,10.77
2022-10-13T02:00:34.475Z,11.17
2022-10-13T02:03:26.871Z,11.40
2022-10-13T02:06:21.067Z,10.33
2022-10-13T02:09:13.291Z,10.70
2022-10-13T02:12:06.831Z,10.43
2022-10-13T02:14:56.669Z,10.20
2022-10-13T02:17:43.532Z,11.20
2022-10-13T02:20:31.399Z,11.10
2022-10-13T02:23:19.175Z,11.60
2022-10-13T02:26:06.071Z,11.63
2022-10-13T02:28:52.982Z,10.67
2022-10-13T02:31:40.892Z,12.23
2022-10-13T02:34:27.996Z,11.93
2022-10-13T02:37:14.827Z,12.50
2022-10-13T02:40:02.507Z,10.90
2022-10-13T02:42:49.535Z,11.30
2022-10-13T02:45:36.404Z,11.10
2022-10-13T02:48:23.244Z,13.03
2022-10-13T02:51:10.084Z,13.20
2022-10-13T02:53:56.928Z,12.67
2022-10-13T02:56:44.400Z,11.40
2022-10-13T02:59:31.240Z,11.83
2022-10-13T03:02:19.024Z,11.50
2022-10-13T03:05:06.717Z,12.13
2022-10-13T03:07:53.552Z,11.23
2022-10-13T03:10:40.378Z,10.47
2022-10-13T03:13:28.053Z,10.77
2022-10-13T03:16:23.213Z,10.80
2022-10-13T03:19:10.137Z,11.10
2022-10-13T03:21:56.981Z,10.30
2022-10-13T03:24:43.815Z,10.50
2022-10-13T03:27:30.746Z,9.87
2022-10-13T03:30:18.377Z,10.50
2022-10-13T03:33:05.266Z,9.77
2022-10-13T03:35:52.086Z,10.23
2022-10-13T03:38:39.662Z,10.13
2022-10-13T03:41:28.170Z,11.33
2022-10-13T03:44:15.342Z,11.23
2022-10-13T03:47:02.826Z,10.37
2022-10-13T03:49:49.692Z,9.97
2022-10-13T03:52:36.590Z,10.27
2022-10-13T03:55:23.998Z,11.23
2022-10-13T03:58:10.810Z,10.13
2022-10-13T04:01:03.922Z,10.63
2022-10-13T04:03:53.055Z,10.17
2022-10-13T04:06:39.912Z,10.60
2022-10-13T04:09:26.930Z,10.17
2022-10-13T04:12:17.165Z,11.17
2022-10-13T04:15:08.782Z,10.07
2022-10-13T04:17:55.647Z,10.67
2022-10-13T04:20:43.128Z,10.80
2022-10-13T04:23:29.946Z,10.80
2022-10-13T04:26:18.751Z,10.63
2022-10-13T04:29:07.307Z,11.37
2022-10-13T04:31:54.672Z,10.67
2022-10-13T04:34:41.523Z,10.57
2022-10-13T04:37:29.052Z,10.83
2022-10-13T04:40:16.228Z,11.40
2022-10-13T04:43:03.092Z,10.90
2022-10-13T04:45:49.924Z,10.70
2022-10-13T04:48:36.768Z,10.87
2022-10-13T04:51:25.225Z,10.93
2022-10-13T04:54:13.573Z,10.97
2022-10-13T04:57:00.440Z,10.73
2022-10-13T04:59:47.323Z,11.27
2022-10-13T05:02:34.983Z,11.13
2022-10-13T05:05:23.426Z,10.90
2022-10-13T05:08:10.286Z,10.93
2022-10-13T05:11:00.628Z,10.80
2022-10-13T05:13:48.100Z,10.80
2022-10-13T05:16:34.932Z,10.27
2022-10-13T05:19:21.785Z,10.47
2022-10-13T05:22:09.297Z,11.10
2022-10-13T05:24:56.125Z,10.60
2022-10-13T05:27:44.370Z,11.20
2022-10-13T05:30:31.745Z,10.50
2022-10-13T05:33:20.853Z,11.10
2022-10-13T05:36:10.089Z,10.47
2022-10-13T05:38:59.261Z,11.20
2022-10-13T05:41:46.318Z,11.27
2022-10-13T05:44:41.217Z,10.13
2022-10-13T05:47:28.058Z,11.27
2022-10-13T05:50:16.204Z,11.13
2022-10-13T05:53:03.202Z,10.90
2022-10-13T05:55:50.793Z,11.07
2022-10-13T05:58:42.923Z,10.53
2022-10-13T06:01:33.671Z,10.60
2022-10-13T06:04:25.694Z,10.37
2022-10-13T06:07:12.918Z,10.67
2022-10-13T06:10:01.478Z,11.13
2022-10-13T06:12:48.342Z,11.43
2022-10-13T06:15:35.262Z,11.07
2022-10-13T06:18:23.030Z,10.73
2022-10-13T06:21:09.998Z,10.10
2022-10-13T06:23:56.799Z,10.50
2022-10-13T06:26:43.660Z,10.63
2022-10-13T06:29:32.097Z,11.20
2022-10-13T06:32:19.334Z,10.70
2022-10-13T06:35:08.085Z,11.20
2022-10-13T06:37:56.266Z,10.37
2022-10-13T06:40:43.301Z,11.13
2022-10-13T06:43:38.646Z,10.43
2022-10-13T06:46:29.486Z,11.37
2022-10-13T06:49:16.560Z,10.70
2022-10-13T06:52:04.266Z,10.93
2022-10-13T06:54:51.201Z,10.40
2022-10-13T06:57:38.061Z,10.53
2022-10-13T07:00:26.611Z,10.20
2022-10-13T07:03:13.485Z,10.97
2022-10-13T07:06:01.476Z,10.30
2022-10-13T07:08:49.176Z,11.20
2022-10-13T07:11:36.283Z,10.63
2022-10-13T07:14:23.165Z,10.83
2022-10-13T07:17:10.416Z,10.83
2022-10-13T07:19:58.036Z,11.37
2022-10-13T07:22:46.680Z,10.60
2022-10-13T07:25:34.912Z,10.57
2022-10-13T07:28:21.909Z,9.77
2022-10-13T07:31:12.838Z,10.97
2022-10-13T07:34:00.918Z,10.67
2022-10-13T07:36:48.601Z,9.60
2022-10-13T07:39:35.453Z,10.93
2022-10-13T07:42:23.011Z,10.97
2022-10-13T07:45:10.410Z,11.20
2022-10-13T07:47:57.239Z,11.23
2022-10-13T07:50:44.064Z,10.60
2022-10-13T07:53:30.883Z,11.27
2022-10-13T07:56:17.761Z,11.40
2022-10-13T07:59:05.238Z,10.47
2022-10-13T08:01:52.095Z,10.83
2022-10-13T08:04:38.961Z,11.40
2022-10-13T08:07:25.818Z,11.13
2022-10-13T08:10:12.919Z,10.47
2022-10-13T08:12:59.762Z,11.10
2022-10-13T08:15:47.293Z,11.73
2022-10-13T08:18:34.209Z,11.67
2022-10-13T08:21:53.211Z,10.70
2022-10-13T08:24:28.733Z,10.73
2022-10-13T08:27:20.148Z,11.13
2022-10-13T08:30:08.909Z,10.30
2022-10-13T08:32:57.308Z,10.97
2022-10-13T08:35:44.277Z,10.60
2022-10-13T08:38:31.172Z,10.37
2022-10-13T08:41:20.684Z,11.77
2022-10-13T08:47:39.674Z,11.07
2022-10-13T08:50:30.998Z,11.63
2022-10-13T08:53:25.069Z,11.27
2022-10-13T08:56:18.231Z,11.53
2022-10-13T08:59:10.218Z,11.93
2022-10-13T09:01:57.482Z,12.40
2022-10-13T09:04:49.983Z,11.93
2022-10-13T09:07:38.936Z,12.10
2022-10-13T09:10:25.899Z,10.60
2022-10-13T09:13:12.760Z,12.07
2022-10-13T09:15:59.675Z,11.03
2022-10-13T09:18:46.500Z,11.82
2022-10-13T09:21:36.016Z,10.68
2022-10-13T09:24:25.770Z,11.70
2022-10-13T09:27:15.812Z,11.88
2022-10-13T09:30:31.407Z,10.02
2022-10-13T09:33:23.656Z,10.95
2022-10-13T09:36:12.588Z,11.00
2022-10-13T09:39:10.857Z,10.07
2022-10-13T09:42:22.741Z,11.98
2022-10-13T09:45:14.574Z,10.15
2022-10-13T09:48:04.703Z,10.60
2022-10-13T09:50:53.239Z,9.98
2022-10-13T09:53:45.698Z,10.63
2022-10-13T09:56:37.827Z,9.77
2022-10-13T09:59:32.454Z,9.70
2022-10-13T10:02:31.322Z,10.30
2022-10-13T10:05:24.233Z,10.65
2022-10-13T10:08:22.561Z,10.65
2022-10-13T10:11:18.943Z,9.02
2022-10-13T10:14:15.243Z,9.50
2022-10-13T10:17:12.262Z,8.80
2022-10-13T10:20:11.296Z,8.50
2022-10-13T10:23:05.223Z,8.10
2022-10-13T10:25:57.820Z,9.15
2022-10-13T10:29:01.539Z,8.38
2022-10-13T10:32:08.342Z,8.63
2022-10-13T10:35:01.508Z,8.52
2022-10-13T10:38:03.201Z,8.45
2022-10-13T10:40:58.908Z,8.25
2022-10-13T10:43:54.584Z,7.63
2022-10-13T10:46:45.982Z,7.47
2022-10-13T10:49:35.581Z,7.68
2022-10-13T10:52:26.994Z,7.53
2022-10-13T10:55:23.373Z,7.18
2022-10-13T10:58:22.826Z,7.05
2022-10-13T11:01:26.719Z,7.55
2022-10-13T11:04:39.389Z,7.55
2022-10-13T11:07:55.304Z,7.32
2022-10-13T11:10:42.162Z,7.22
2022-10-13T11:13:29.006Z,7.00
2022-10-13T11:16:33.725Z,7.28
2022-10-13T11:19:32.418Z,7.50
2022-10-13T11:22:22.155Z,8.00
2022-10-13T11:25:38.708Z,8.25
2022-10-13T11:28:45.432Z,8.25
2022-10-13T11:31:49.820Z,7.10
2022-10-13T11:34:36.811Z,7.25
2022-10-13T11:37:30.301Z,8.05
2022-10-13T11:40:28.555Z,7.88
2022-10-13T11:43:36.571Z,7.88
2022-10-13T11:46:26.875Z,7.65
2022-10-13T11:49:34.408Z,8.10
2022-10-13T11:52:35.500Z,8.13
2022-10-13T11:55:32.597Z,7.65
2022-10-13T11:58:22.328Z,7.00
2022-10-13T12:01:14.028Z,7.55
2022-10-13T12:04:13.224Z,8.20
2022-10-13T12:07:02.908Z,7.05
2022-10-13T12:09:52.297Z,7.05
2022-10-13T12:12:46.897Z,7.22
2022-10-13T12:15:35.896Z,6.90
2022-10-13T12:18:26.689Z,7.57
2022-10-13T12:21:16.628Z,6.85
2022-10-13T12:24:08.651Z,6.80
2022-10-13T12:26:57.248Z,7.07
2022-10-13T12:29:45.032Z,6.35
2022-10-13T12:32:35.036Z,6.90
2022-10-13T12:35:25.668Z,6.60
2022-10-13T12:38:18.140Z,6.35
2022-10-13T12:41:05.616Z,6.80
2022-10-13T12:43:53.770Z,6.82
2022-10-13T12:46:42.415Z,7.05
2022-10-13T12:49:31.112Z,7.47
2022-10-13T12:52:23.006Z,7.55
2022-10-13T12:55:15.975Z,7.45
2022-10-13T12:58:03.051Z,6.97
2022-10-13T13:01:02.529Z,6.80
2022-10-13T13:03:55.057Z,6.93
2022-10-13T13:06:52.196Z,6.97
2022-10-13T13:09:41.596Z,7.38
2022-10-13T13:12:28.913Z,7.18
2022-10-13T13:15:31.076Z,7.53
2022-10-13T13:18:38.769Z,7.15
2022-10-13T13:21:25.618Z,7.25
2022-10-13T13:24:28.300Z,6.97
2022-10-13T13:27:40.204Z,7.45
2022-10-13T13:30:28.137Z,7.25
2022-10-13T13:33:14.995Z,7.88
2022-10-13T13:36:04.965Z,7.68
2022-10-13T13:38:52.661Z,7.57
2022-10-13T13:41:39.498Z,8.60
2022-10-13T13:44:26.341Z,8.18
2022-10-13T13:47:16.884Z,8.07
2022-10-13T13:50:14.282Z,8.43
2022-10-13T13:53:04.182Z,8.48
2022-10-13T13:55:51.357Z,8.73
2022-10-13T13:58:38.429Z,8.95
2022-10-13T14:01:25.326Z,8.55
2022-10-13T14:04:12.226Z,8.32
2022-10-13T14:06:59.058Z,8.52
2022-10-13T14:09:46.661Z,8.80
2022-10-13T14:12:33.878Z,8.88
2022-10-13T14:15:23.408Z,8.70
2022-10-13T14:18:12.949Z,9.00
2022-10-13T14:20:59.827Z,8.70
2022-10-13T14:23:46.678Z,9.23
2022-10-13T14:26:34.144Z,9.38
2022-10-13T14:29:21.117Z,9.50
2022-10-13T14:32:07.945Z,9.70
2022-10-13T14:34:54.785Z,10.30
2022-10-13T14:37:41.642Z,10.43
2022-10-13T14:40:28.513Z,9.60
2022-10-13T14:43:15.986Z,9.47
2022-10-13T14:46:04.537Z,9.82
2022-10-13T14:48:51.550Z,9.83
2022-10-13T14:51:38.462Z,9.40
2022-10-13T14:54:25.600Z,9.60
2022-10-13T14:57:14.905Z,9.88
2022-10-13T15:00:03.147Z,9.63
2022-10-13T15:02:50.166Z,10.82
2022-10-13T15:05:38.258Z,9.70
2022-10-13T15:08:25.322Z,10.40
2022-10-13T15:11:13.203Z,9.90
2022-10-13T15:14:00.152Z,10.85
2022-10-13T15:16:47.667Z,10.15
2022-10-13T15:19:34.649Z,10.53
2022-10-13T15:22:23.751Z,10.63
2022-10-13T15:25:11.067Z,10.57
2022-10-13T15:27:57.881Z,9.90
2022-10-13T15:30:45.395Z,11.10
2022-10-13T15:33:34.585Z,11.77
2022-10-13T15:36:22.499Z,10.67
2022-10-13T15:39:10.217Z,11.63
2022-10-13T15:41:57.043Z,12.10
2022-10-13T15:47:51.068Z,10.80
2022-10-13T15:50:39.716Z,10.80
2022-10-13T15:53:26.759Z,11.40
2022-10-13T15:56:14.515Z,11.93
2022-10-13T15:59:01.389Z,12.03
2022-10-13T16:01:48.284Z,12.02
2022-10-13T16:04:37.600Z,11.60
2022-10-13T16:07:25.300Z,13.23
2022-10-13T16:10:13.754Z,12.67
2022-10-13T16:13:00.647Z,12.23
2022-10-13T16:15:56.593Z,11.40
2022-10-13T16:18:43.753Z,12.73
2022-10-13T16:21:30.633Z,13.23
2022-10-13T16:24:18.115Z,13.33
2022-10-13T16:27:05.044Z,12.63
2022-10-13T16:29:53.615Z,12.77
2022-10-13T16:32:40.767Z,12.27
2022-10-13T16:35:27.616Z,13.17
2022-10-13T16:38:14.518Z,13.20
2022-10-13T16:41:04.380Z,13.10
2022-10-13T16:43:51.209Z,13.53
2022-10-13T16:46:38.118Z,14.37
2022-10-13T16:49:25.115Z,13.37
2022-10-13T16:52:11.935Z,14.63
2022-10-13T16:54:58.751Z,14.57
2022-10-13T16:57:47.173Z,13.67
2022-10-13T17:00:34.954Z,13.73
2022-10-13T17:03:21.820Z,13.67
2022-10-13T17:06:10.037Z,13.87
2022-10-13T17:08:58.714Z,13.77
2022-10-13T17:11:45.776Z,12.97
2022-10-13T17:14:33.309Z,14.20
2022-10-13T17:17:20.260Z,14.07
2022-10-13T17:20:07.868Z,14.43
2022-10-13T17:22:57.304Z,14.03
2022-10-13T17:25:44.172Z,14.20
2022-10-13T17:28:31.474Z,14.23
2022-10-13T17:31:22.476Z,13.63
2022-10-13T17:34:09.454Z,14.53
2022-10-13T17:36:58.104Z,13.85
2022-10-13T17:39:45.011Z,15.37
2022-10-13T17:42:33.367Z,15.07
2022-10-13T17:45:20.619Z,15.18
2022-10-13T17:48:08.130Z,15.37
2022-10-13T17:51:00.704Z,14.27
2022-10-13T17:53:48.914Z,15.02
2022-10-13T17:56:36.330Z,15.50
2022-10-13T17:59:23.394Z,16.10
2022-10-13T18:02:10.451Z,15.70
2022-10-13T18:04:58.226Z,16.33
2022-10-13T18:07:45.232Z,16.33
2022-10-13T18:11:03.476Z,16.00
2022-10-13T18:13:41.615Z,17.00
2022-10-13T18:16:28.518Z,16.67
2022-10-13T18:19:15.475Z,17.30
2022-10-13T18:22:03.218Z,16.43
2022-10-13T18:24:54.561Z,16.00
2022-10-13T18:27:43.714Z,15.63
2022-10-13T18:30:32.734Z,16.17
2022-10-13T18:33:19.559Z,16.67
2022-10-13T18:36:14.908Z,16.57
2022-10-13T18:39:04.607Z,15.07
2022-10-13T18:41:52.844Z,15.93
2022-10-13T18:44:39.715Z,15.63
2022-10-13T18:47:26.587Z,16.33
2022-10-13T18:50:13.439Z,16.00
2022-10-13T18:53:00.274Z,16.03
2022-10-13T18:55:47.810Z,15.47
2022-10-13T18:58:34.981Z,14.90
2022-10-13T19:01:23.784Z,16.30
2022-10-13T19:04:13.811Z,15.03
2022-10-13T19:07:00.672Z,14.83
2022-10-13T19:09:47.515Z,15.30
2022-10-13T19:12:35.019Z,14.70
2022-10-13T19:15:21.875Z,15.43
2022-10-13T19:18:10.029Z,15.17
2022-10-13T19:20:59.084Z,14.90
2022-10-13T19:23:46.204Z,14.97
2022-10-13T19:26:38.888Z,14.40
2022-10-13T19:29:26.468Z,14.37
2022-10-13T19:32:13.328Z,15.47
2022-10-13T19:35:00.302Z,15.13
2022-10-13T19:37:47.176Z,15.43
2022-10-13T19:40:36.813Z,15.00
2022-10-13T19:43:25.780Z,15.10
2022-10-13T19:46:13.433Z,15.10
2022-10-13T19:49:00.301Z,14.83
2022-10-13T19:51:48.773Z,15.13
2022-10-13T19:54:36.281Z,16.03
2022-10-13T19:57:23.255Z,15.27
2022-10-13T20:00:11.777Z,16.13
2022-10-13T20:03:01.021Z,15.33
2022-10-13T20:05:47.869Z,15.50
2022-10-13T20:08:34.714Z,18.23
2022-10-13T20:11:24.077Z,16.27
2022-10-13T20:14:11.258Z,16.27
2022-10-13T20:16:58.126Z,18.50
2022-10-13T20:19:45.763Z,17.80
2022-10-13T20:22:33.027Z,17.90
2022-10-13T20:25:20.036Z,17.87
2022-10-13T20:28:06.890Z,16.60
2022-10-13T20:30:53.729Z,17.07
2022-10-13T20:33:41.716Z,17.50
2022-10-13T20:36:29.250Z,17.00
2022-10-13T20:39:16.098Z,15.97
2022-10-13T20:42:03.203Z,16.60
2022-10-13T20:44:50.074Z,17.77
2022-10-13T20:47:36.902Z,17.57
2022-10-13T20:50:23.750Z,16.77
2022-10-13T20:53:11.195Z,18.50
2022-10-13T20:55:58.758Z,17.73
2022-10-13T20:58:46.007Z,17.93
2022-10-13T21:01:33.417Z,18.60
2022-10-13T21:04:20.276Z,18.73
2022-10-13T21:07:07.100Z,17.23
2022-10-13T21:09:54.586Z,16.57
2022-10-13T21:12:41.413Z,17.80
2022-10-13T21:15:28.565Z,18.07
2022-10-13T21:18:15.562Z,16.93
2022-10-13T21:21:04.617Z,17.93
2022-10-13T21:23:52.797Z,17.77
2022-10-13T21:26:40.599Z,17.73
2022-10-13T21:29:33.455Z,17.30
2022-10-13T21:32:20.291Z,17.00
2022-10-13T21:35:07.988Z,15.97
2022-10-13T21:37:54.848Z,14.70
2022-10-13T21:40:41.708Z,15.90
2022-10-13T21:43:29.763Z,15.97
2022-10-13T21:46:18.924Z,17.60
2022-10-13T21:49:06.147Z,16.53
2022-10-13T21:51:54.500Z,17.73
2022-10-13T21:54:41.360Z,17.50
2022-10-13T21:57:28.212Z,16.13
2022-10-13T22:00:16.023Z,15.83
2022-10-13T22:03:02.930Z,17.13
2022-10-13T22:05:49.749Z,16.33
2022-10-13T22:08:38.545Z,17.27
2022-10-13T22:11:35.452Z,17.23
2022-10-13T22:14:29.566Z,17.60
2022-10-13T22:17:17.040Z,17.13
2022-10-13T22:20:04.410Z,17.77
2022-10-13T22:22:51.248Z,17.83
2022-10-13T22:25:43.154Z,17.87
2022-10-13T22:28:36.096Z,18.47
2022-10-13T22:31:24.092Z,16.60
2022-10-13T22:34:13.025Z,16.83
2022-10-13T22:36:59.906Z,15.97
2022-10-13T22:39:47.877Z,14.27
2022-10-13T22:42:34.704Z,16.13
2022-10-13T22:45:21.537Z,17.30
2022-10-13T22:48:10.508Z,16.47
2022-10-13T22:50:57.956Z,15.17
2022-10-13T22:53:49.903Z,14.87
2022-10-13T22:56:36.758Z,14.40
2022-10-13T22:59:26.670Z,14.40
2022-10-13T23:02:13.497Z,15.07
2022-10-13T23:05:00.566Z,16.00
2022-10-13T23:07:49.046Z,14.57
2022-10-13T23:10:36.521Z,15.47
2022-10-13T23:13:23.726Z,14.90
2022-10-13T23:16:13.230Z,14.50
2022-10-13T23:19:02.865Z,15.40
2022-10-13T23:21:49.729Z,14.55
2022-10-13T23:24:37.189Z,14.97
2022-10-13T23:27:24.179Z,14.70
2022-10-13T23:30:12.675Z,14.93
2022-10-13T23:32:59.493Z,14.57
2022-10-13T23:35:53.706Z,14.80
2022-10-13T23:38:40.627Z,14.73
2022-10-13T23:41:28.698Z,15.00
2022-10-13T23:44:15.664Z,14.83
2022-10-13T23:47:02.515Z,15.77
2022-10-13T23:49:49.353Z,14.73
2022-10-13T23:52:36.214Z,14.97
2022-10-13T23:55:23.120Z,15.03
2022-10-13T23:58:10.721Z,14.63
